Astor, Florida
Current Conditions -  °F | °C
As of 10:53 AM on Saturday 20 Dec 2014 (Local Time) from KLEE Reporting Station
Clear Clear  
Wind Chill: 69°   Ceiling: Unl
Heat Index: 69°   Visibility: 10mi
Dew Point: 58°   Wind: 3mph
Humidity: 68%   Direction: 170°S
Pressure: 30.13"   Gusts: NA
Location:  29.15°N, 81.53°W
Report Text: KLEE 201553Z 17003KT 10SM CLR 21/14 A3013 RMK AO2 SLP202 T02060144
Loading
Personal Weather Stations






























Interactive Weather Map New forecast layout! Learn more

10-Day Weather Forecast

Advertisements
Track Severe Weather on mobile